Time;durP1;ratioP1;P1;durP2;ratioP2;P2;SDS_P1;SDS_P2;PMS_P1;PMS_P2;Temp;Humidity;BMP_temperature;BMP_pressure;BME280_temperature;BME280_humidity;BME280_pressure;Samples;Min_cycle;Max_cycle;Signal;HPM_P1;HPM_P2
2022/12/26 21:23:58;;;;;;;30.52;19.45;;;;;;;7.69;100.00;99898.15;1746553;80;35021;-61
2022/12/26 21:26:26;;;;;;;28.62;18.15;;;;;;;7.64;100.00;99889.09;1751636;81;25606;-59
2022/12/26 21:29:00;;;;;;;31.60;18.52;;;;;;;7.66;100.00;99891.45;1784292;80;28040;-60
2022/12/26 21:31:29;;;;;;;33.90;18.60;;;;;;;7.67;100.00;99885.77;1734373;82;25626;-61
2022/12/26 21:33:58;;;;;;;30.12;18.50;;;;;;;7.71;100.00;99887.88;1740431;81;25478;-62
2022/12/26 21:36:27;;;;;;;27.75;16.60;;;;;;;7.73;100.00;99877.59;1770614;81;25456;-61
2022/12/26 21:38:55;;;;;;;28.87;16.73;;;;;;;7.74;100.00;99874.61;1739087;81;25386;-61
2022/12/26 21:41:22;;;;;;;28.23;16.77;;;;;;;7.77;100.00;99875.36;1784264;80;27503;-62
2022/12/26 21:43:49;;;;;;;26.87;16.93;;;;;;;7.80;100.00;99880.71;1756592;81;25577;-61
2022/12/26 21:46:19;;;;;;;25.05;16.95;;;;;;;7.82;100.00;99888.72;1784200;80;25616;-60
2022/12/26 21:48:46;;;;;;;23.90;15.03;;;;;;;7.82;100.00;99876.60;1756571;81;25588;-61
2022/12/26 21:51:16;;;;;;;25.08;16.35;;;;;;;7.84;100.00;99879.78;1784206;80;25566;-61
2022/12/26 21:53:44;;;;;;;26.12;16.12;;;;;;;7.86;100.00;99875.45;1725990;81;27374;-61
2022/12/26 21:56:13;;;;;;;23.75;14.85;;;;;;;7.85;100.00;99873.31;1784079;80;25438;-62
2022/12/26 22:01:26;;;;;;;27.90;17.35;;;;;;;7.85;100.00;99873.31;1784183;80;25452;-63
2022/12/26 22:06:40;;;;;;;32.80;17.95;;;;;;;7.86;100.00;99876.23;1784218;80;26993;-63
2022/12/26 22:09:09;;;;;;;25.00;17.25;;;;;;;7.90;100.00;99875.11;1747790;81;25579;-62
2022/12/26 22:14:22;;;;;;;29.10;17.80;;;;;;;7.91;100.00;99875.34;1756605;81;25625;-61
2022/12/26 22:16:54;;;;;;;25.23;16.12;;;;;;;7.96;100.00;99877.14;1784242;80;25571;-63
2022/12/26 22:19:25;;;;;;;23.57;14.58;;;;;;;7.97;100.00;99872.80;1734632;82;27470;-66
2022/12/26 22:21:54;;;;;;;27.32;15.48;;;;;;;7.97;100.00;99878.19;1770443;80;25620;-66
2022/12/26 22:24:22;;;;;;;23.83;14.43;;;;;;;7.94;100.00;99886.87;1772639;80;25419;-67
2022/12/26 22:26:49;;;;;;;22.40;14.25;;;;;;;7.92;100.00;99888.28;1772564;81;25577;-65
2022/12/26 22:29:15;;;;;;;22.37;14.68;;;;;;;7.88;100.00;99881.88;1772625;81;25645;-63
2022/12/26 22:31:41;;;;;;;24.47;13.75;;;;;;;7.86;100.00;99885.66;1772552;81;27493;-65
2022/12/26 22:34:11;;;;;;;23.18;13.10;;;;;;;7.82;100.00;99879.30;1772508;80;25567;-67
2022/12/26 22:36:39;;;;;;;19.32;13.35;;;;;;;7.80;100.00;99880.71;1772690;81;25526;-66
2022/12/26 22:39:07;;;;;;;26.10;13.22;;;;;;;7.74;100.00;99874.61;1772574;80;25407;-64
2022/12/26 22:41:33;;;;;;;20.55;13.75;;;;;;;7.71;100.00;99869.03;1772574;81;25405;-66
2022/12/26 22:44:01;;;;;;;23.22;15.28;;;;;;;7.71;100.00;99875.76;1772557;81;27556;-66
2022/12/26 22:46:27;;;;;;;24.10;15.43;;;;;;;7.66;100.00;99869.92;1772483;81;25763;-65
2022/12/26 22:48:54;;;;;;;23.45;15.60;;;;;;;7.66;100.00;99861.84;1772565;81;25473;-65
2022/12/26 22:51:23;;;;;;;22.67;14.00;;;;;;;7.63;100.00;99859.77;1772507;81;25523;-65
2022/12/26 22:53:56;;;;;;;18.98;13.13;;;;;;;7.61;100.00;99863.29;1772625;81;25411;-65
2022/12/26 22:56:23;;;;;;;23.85;14.43;;;;;;;7.57;100.00;99859.61;1772594;81;28141;-65
2022/12/26 22:58:59;;;;;;;23.40;13.48;;;;;;;7.54;100.00;99853.48;1772492;81;25786;-65
2022/12/26 23:01:24;;;;;;;19.30;12.63;;;;;;;7.48;100.00;99864.34;1772485;81;25573;-65
2022/12/26 23:03:50;;;;;;;20.02;12.47;;;;;;;7.46;100.00;99865.75;1772570;81;27468;-64
2022/12/26 23:06:28;;;;;;;20.77;12.63;;;;;;;7.41;100.00;99869.88;1772550;81;25617;-65
2022/12/26 23:08:58;;;;;;;23.35;13.83;;;;;;;7.38;100.00;99882.58;1768381;81;27543;-67
2022/12/26 23:11:29;;;;;;;24.98;15.32;;;;;;;7.37;100.00;99889.86;1772504;81;25526;-63
2022/12/26 23:13:57;;;;;;;23.55;13.78;;;;;;;7.38;100.00;99893.34;1772589;80;25558;-66
2022/12/26 23:16:49;;;;;;;23.18;13.22;;;;;;;7.36;100.00;99890.16;1743618;81;25413;-65
2022/12/26 23:22:35;;;;;;;23.55;14.25;;;;;;;7.36;100.00;99884.22;1770871;80;27489;-65
2022/12/26 23:25:02;;;;;;;35.68;17.85;;;;;;;7.36;100.00;99888.26;1764337;81;25574;-67
2022/12/26 23:30:19;;;;;;;28.32;15.28;;;;;;;7.36;100.00;99877.49;1764365;81;25526;-66
2022/12/26 23:32:52;;;;;;;22.32;13.72;;;;;;;7.35;100.00;99868.37;1764371;81;25558;-65
2022/12/26 23:35:21;;;;;;;22.15;13.80;;;;;;;7.33;100.00;99863.28;1706830;81;29305;-65
2022/12/26 23:37:49;;;;;;;23.70;13.83;;;;;;;7.31;100.00;99862.00;1764303;81;25395;-66
2022/12/26 23:40:18;;;;;;;29.57;15.98;;;;;;;7.30;100.00;99871.95;1764357;81;25404;-67
2022/12/26 23:42:45;;;;;;;16.85;11.40;;;;;;;7.26;100.00;99872.30;1764478;81;25614;-66
2022/12/26 23:45:14;;;;;;;23.40;14.47;;;;;;;7.27;100.00;99865.28;1764416;81;25457;-66
2022/12/26 23:47:43;;;;;;;26.02;15.48;;;;;;;7.26;100.00;99858.29;1764389;81;27468;-66
2022/12/26 23:50:12;;;;;;;24.90;15.05;;;;;;;7.27;100.00;99864.46;1764417;81;25754;-65
2022/12/26 23:52:40;;;;;;;26.55;15.35;;;;;;;7.27;100.00;99863.12;1764475;81;25679;-65
2022/12/26 23:55:28;;;;;;;68.30;62.33;;;;;;;7.26;100.00;99860.98;1764308;81;25408;-65
2022/12/26 23:57:56;;;;;;;82.88;76.30;;;;;;;7.26;100.00;99851.56;1669760;85;25451;-65
